Time;durP1;ratioP1;P1;durP2;ratioP2;P2;SDS_P1;SDS_P2;PMS_P1;PMS_P2;Temp;Humidity;BMP_temperature;BMP_pressure;BME280_temperature;BME280_humidity;BME280_pressure;Samples;Min_cycle;Max_cycle;Signal;HPM_P1;HPM_P2
2023/08/05 00:00:19;;;;;;;1.93;1.67;;;;;18.50;96203.00;;;;5019910;28;20201;-70
2023/08/05 00:03:08;;;;;;;2.10;1.90;;;;;18.50;96203.00;;;;5035748;28;20224;-70
2023/08/05 00:05:58;;;;;;;4.83;2.00;;;;;18.40;96196.00;;;;5040750;28;20229;-70
2023/08/05 00:08:47;;;;;;;2.43;1.90;;;;;18.10;96200.00;;;;5037257;28;20197;-71
2023/08/05 00:11:37;;;;;;;2.87;2.00;;;;;18.00;96182.00;;;;5031185;28;20205;-70
2023/08/05 00:14:26;;;;;;;1.77;1.60;;;;;18.40;96180.00;;;;5026548;28;20205;-71
2023/08/05 00:17:15;;;;;;;4.33;1.97;;;;;18.40;96170.00;;;;5019666;28;20229;-70
2023/08/05 00:20:05;;;;;;;5.60;2.10;;;;;18.30;96172.00;;;;5019775;28;20217;-71
2023/08/05 00:22:55;;;;;;;6.60;1.90;;;;;18.30;96161.00;;;;5020829;28;20217;-71
2023/08/05 00:25:44;;;;;;;2.00;1.80;;;;;18.40;96161.00;;;;5015243;28;20707;-70
2023/08/05 00:28:33;;;;;;;3.47;2.00;;;;;18.40;96147.00;;;;5024974;28;20216;-70
2023/08/05 00:31:22;;;;;;;2.33;1.80;;;;;18.40;96140.00;;;;5028934;28;20211;-70
2023/08/05 00:34:11;;;;;;;2.80;1.57;;;;;18.40;96138.00;;;;5023437;28;20204;-70
2023/08/05 00:37:00;;;;;;;2.53;1.93;;;;;18.40;96130.00;;;;5021361;28;20205;-70
2023/08/05 00:39:50;;;;;;;3.37;1.47;;;;;18.40;96134.00;;;;5024536;28;20673;-70
2023/08/05 00:42:39;;;;;;;3.83;2.00;;;;;18.20;96150.00;;;;5022175;28;20282;-70
2023/08/05 00:45:29;;;;;;;3.30;1.67;;;;;18.30;96162.00;;;;5030075;28;20208;-70
2023/08/05 00:48:18;;;;;;;1.97;1.53;;;;;18.30;96151.00;;;;5015723;28;20209;-71
2023/08/05 00:51:07;;;;;;;2.83;2.23;;;;;18.30;96135.00;;;;5013674;28;20198;-71
2023/08/05 00:53:56;;;;;;;2.20;2.00;;;;;18.30;96147.00;;;;5023589;28;20204;-70
2023/08/05 00:56:47;;;;;;;3.20;1.40;;;;;18.30;96161.00;;;;5011606;28;20202;-70
2023/08/05 00:59:36;;;;;;;1.43;1.33;;;;;18.30;96156.00;;;;5021513;28;20594;-70
2023/08/05 01:02:25;;;;;;;1.83;1.43;;;;;18.20;96159.00;;;;5023431;28;20236;-70
2023/08/05 01:05:15;;;;;;;2.97;2.50;;;;;18.30;96134.00;;;;5029666;28;20205;-70
2023/08/05 01:08:04;;;;;;;2.40;1.70;;;;;18.20;96124.00;;;;5011972;28;20217;-70
2023/08/05 01:10:53;;;;;;;8.63;1.87;;;;;18.30;96127.00;;;;5007172;28;20202;-70
2023/08/05 01:13:44;;;;;;;4.27;1.97;;;;;18.30;96135.00;;;;5029311;28;20233;-70
2023/08/05 01:16:33;;;;;;;3.83;1.40;;;;;18.40;96132.00;;;;5030904;28;20267;-70
2023/08/05 01:19:23;;;;;;;2.10;1.20;;;;;18.30;96135.00;;;;5035083;28;20225;-70
2023/08/05 01:22:25;;;;;;;2.10;1.90;;;;;17.90;96141.00;;;;5024388;28;20267;-70
2023/08/05 01:25:33;;;;;;;2.37;2.17;;;;;18.10;96119.00;;;;5032300;28;20822;-70
2023/08/05 01:28:22;;;;;;;2.10;1.33;;;;;18.10;96106.00;;;;5035553;28;20201;-70
2023/08/05 01:31:13;;;;;;;1.53;1.40;;;;;17.80;96096.00;;;;5035223;28;20208;-70
2023/08/05 01:34:02;;;;;;;3.13;2.03;;;;;18.10;96106.00;;;;5042838;28;20235;-70
2023/08/05 01:36:51;;;;;;;2.53;1.60;;;;;17.20;96112.00;;;;5034368;28;20204;-69
2023/08/05 01:39:40;;;;;;;4.20;2.00;;;;;17.60;96105.00;;;;5031859;28;20225;-68
2023/08/05 01:42:30;;;;;;;2.93;1.60;;;;;17.90;96101.00;;;;5032325;28;20213;-68
2023/08/05 01:45:19;;;;;;;2.07;1.60;;;;;17.80;96095.00;;;;5029450;28;20216;-68
2023/08/05 01:48:08;;;;;;;2.80;2.07;;;;;18.00;96116.00;;;;5026078;28;20198;-69
2023/08/05 01:50:58;;;;;;;3.03;1.90;;;;;18.10;96131.00;;;;5036578;28;20213;-69
2023/08/05 01:53:47;;;;;;;2.57;1.73;;;;;18.20;96141.00;;;;5032047;28;20204;-69
2023/08/05 01:56:36;;;;;;;2.50;2.27;;;;;18.30;96151.00;;;;5026068;28;20609;-69
2023/08/05 01:59:26;;;;;;;3.13;2.10;;;;;18.30;96141.00;;;;5030985;28;20228;-69
2023/08/05 02:02:15;;;;;;;2.13;1.87;;;;;18.10;96130.00;;;;5023947;28;20220;-69
2023/08/05 02:05:04;;;;;;;2.67;1.57;;;;;18.10;96128.00;;;;5031389;28;20196;-69
2023/08/05 02:07:53;;;;;;;1.70;1.40;;;;;18.10;96135.00;;;;5029885;28;20281;-69
2023/08/05 02:10:43;;;;;;;5.97;2.20;;;;;18.20;96116.00;;;;5036995;28;20224;-69
2023/08/05 02:13:32;;;;;;;1.90;1.70;;;;;18.20;96106.00;;;;5036165;28;20235;-69
2023/08/05 02:16:22;;;;;;;3.53;1.50;;;;;17.90;96108.00;;;;5027164;28;20264;-69
2023/08/05 02:19:12;;;;;;;2.80;2.30;;;;;17.50;96092.00;;;;5038042;28;20266;-68
2023/08/05 02:22:01;;;;;;;3.47;1.90;;;;;17.50;96081.00;;;;5036084;28;20725;-69
2023/08/05 02:24:50;;;;;;;2.53;1.73;;;;;17.50;96071.00;;;;5026520;28;20208;-68
2023/08/05 02:27:39;;;;;;;3.70;2.43;;;;;17.30;96053.00;;;;5029344;28;20208;-69
2023/08/05 02:30:28;;;;;;;4.23;1.77;;;;;16.90;96029.00;;;;5035069;28;20205;-68
2023/08/05 02:33:18;;;;;;;1.90;1.70;;;;;17.00;96027.00;;;;5031480;28;20227;-69
2023/08/05 02:36:07;;;;;;;4.03;1.60;;;;;17.60;96028.00;;;;5024646;28;20198;-68
2023/08/05 02:38:56;;;;;;;7.17;2.20;;;;;17.90;96028.00;;;;5017829;28;20589;-68
2023/08/05 02:41:47;;;;;;;2.87;1.80;;;;;17.80;96027.00;;;;5024654;28;20652;-69
2023/08/05 02:44:36;;;;;;;2.37;2.17;;;;;18.00;96029.00;;;;5041276;28;20212;-69
2023/08/05 02:47:26;;;;;;;3.63;2.30;;;;;18.20;96032.00;;;;5026476;28;20210;-69
2023/08/05 02:50:16;;;;;;;2.60;2.03;;;;;18.10;96026.00;;;;5028495;28;20200;-68
2023/08/05 02:53:05;;;;;;;2.10;1.73;;;;;18.20;96027.00;;;;5034080;28;20595;-69
2023/08/05 02:55:54;;;;;;;2.50;2.10;;;;;18.30;96023.00;;;;5036185;28;20202;-69
2023/08/05 02:58:43;;;;;;;3.70;1.40;;;;;18.20;96036.00;;;;5020473;28;20229;-69
2023/08/05 03:01:33;;;;;;;4.53;2.17;;;;;18.20;96029.00;;;;5034552;28;20197;-68
2023/08/05 03:04:22;;;;;;;2.47;1.50;;;;;18.20;96035.00;;;;5037808;28;20213;-68
2023/08/05 03:07:12;;;;;;;1.93;1.73;;;;;18.20;96025.00;;;;5021857;28;20197;-69
2023/08/05 03:10:01;;;;;;;7.33;1.70;;;;;18.20;96015.00;;;;5029424;28;20576;-69
2023/08/05 03:12:50;;;;;;;3.50;1.40;;;;;18.00;96002.00;;;;5027165;28;20716;-69
2023/08/05 03:15:39;;;;;;;1.97;1.47;;;;;17.90;95991.00;;;;5045040;28;20578;-69
2023/08/05 03:18:28;;;;;;;3.23;1.93;;;;;17.90;96001.00;;;;5034752;28;20189;-69
2023/08/05 03:21:17;;;;;;;4.53;1.77;;;;;18.10;96006.00;;;;5031267;28;20201;-68
2023/08/05 03:24:08;;;;;;;8.13;1.67;;;;;18.10;96009.00;;;;5020566;28;20205;-69
2023/08/05 03:26:57;;;;;;;1.40;1.30;;;;;18.00;95992.00;;;;5032984;28;20209;-69
2023/08/05 03:29:47;;;;;;;2.07;1.50;;;;;17.90;96009.00;;;;5042466;28;20201;-69
2023/08/05 03:32:36;;;;;;;1.93;1.60;;;;;17.80;96012.00;;;;5036675;28;20237;-69
2023/08/05 03:35:25;;;;;;;3.90;1.60;;;;;17.90;96021.00;;;;5026426;28;20255;-68
2023/08/05 03:38:14;;;;;;;1.63;1.43;;;;;18.00;96014.00;;;;5041046;28;20205;-69
2023/08/05 03:41:05;;;;;;;1.20;1.03;;;;;18.10;96019.00;;;;5028496;28;20200;-69
2023/08/05 03:43:54;;;;;;;1.77;1.40;;;;;18.10;96011.00;;;;5014481;28;20708;-69
2023/08/05 03:46:45;;;;;;;1.37;1.10;;;;;18.10;96010.00;;;;5027776;28;20202;-69
2023/08/05 03:49:34;;;;;;;1.93;1.63;;;;;17.90;96006.00;;;;5030887;28;20200;-69
2023/08/05 03:52:24;;;;;;;1.20;1.10;;;;;17.80;96002.00;;;;5029820;28;20217;-69
2023/08/05 03:55:13;;;;;;;3.07;1.30;;;;;18.10;95999.00;;;;5026748;28;20224;-69
2023/08/05 03:58:04;;;;;;;2.10;1.63;;;;;18.10;95995.00;;;;5028429;28;20255;-69
2023/08/05 04:00:54;;;;;;;2.77;1.57;;;;;18.20;96001.00;;;;5018059;28;20596;-68
2023/08/05 04:03:43;;;;;;;1.83;1.50;;;;;18.10;95998.00;;;;5019411;28;20221;-69
2023/08/05 04:06:32;;;;;;;2.60;1.33;;;;;18.20;96005.00;;;;5039927;28;20200;-69
2023/08/05 04:09:22;;;;;;;5.17;1.40;;;;;18.30;96006.00;;;;5031764;28;20208;-69
2023/08/05 04:12:13;;;;;;;4.27;1.40;;;;;18.30;96009.00;;;;5026070;28;20232;-68
2023/08/05 04:15:04;;;;;;;2.97;1.37;;;;;18.30;96000.00;;;;5028451;28;20194;-69
2023/08/05 04:17:57;;;;;;;3.90;1.33;;;;;18.30;96000.00;;;;5025503;28;20216;-68
2023/08/05 04:20:48;;;;;;;1.70;1.60;;;;;18.20;96000.00;;;;5032380;28;20678;-69
2023/08/05 04:23:37;;;;;;;3.57;1.97;;;;;18.30;95995.00;;;;5031961;28;20703;-68
2023/08/05 04:26:27;;;;;;;2.03;1.63;;;;;18.30;95998.00;;;;5025220;28;20198;-68
2023/08/05 04:29:18;;;;;;;1.63;1.40;;;;;18.10;95995.00;;;;5033984;28;20217;-69
2023/08/05 04:32:09;;;;;;;2.87;1.67;;;;;18.30;96000.00;;;;5020533;28;20279;-69
2023/08/05 04:34:59;;;;;;;1.77;1.50;;;;;18.30;96002.00;;;;5033746;28;20205;-69
2023/08/05 04:37:48;;;;;;;1.67;1.57;;;;;18.30;95992.00;;;;5044471;28;20204;-69
2023/08/05 04:40:37;;;;;;;2.63;1.70;;;;;18.20;96000.00;;;;5041529;28;20232;-69
2023/08/05 04:43:26;;;;;;;1.80;1.60;;;;;18.10;95993.00;;;;5036245;28;20218;-69
2023/08/05 04:46:15;;;;;;;2.30;1.30;;;;;18.10;95989.00;;;;5028874;28;20201;-69
2023/08/05 04:49:08;;;;;;;4.60;1.30;;;;;18.30;95983.00;;;;5030245;28;20197;-69
2023/08/05 04:51:57;;;;;;;1.97;1.30;;;;;18.30;95976.00;;;;5024719;28;20286;-69
2023/08/05 04:54:46;;;;;;;5.63;1.70;;;;;18.30;95970.00;;;;5033742;28;20197;-69
2023/08/05 04:57:36;;;;;;;1.30;1.00;;;;;18.20;95945.00;;;;5025752;28;20216;-69
2023/08/05 05:00:25;;;;;;;2.77;0.97;;;;;18.40;95932.00;;;;5022148;28;20592;-69
2023/08/05 05:03:14;;;;;;;1.30;1.07;;;;;18.20;95923.00;;;;5030353;28;20229;-69
2023/08/05 05:06:06;;;;;;;1.87;1.03;;;;;18.40;95926.00;;;;5030696;28;20232;-69
2023/08/05 05:08:56;;;;;;;1.80;1.63;;;;;18.50;95922.00;;;;5039259;28;20205;-69
2023/08/05 06:21:07;;;;;;;1.03;0.63;;;;;18.40;95913.00;;;;4952382;28;20232;-65
2023/08/05 06:23:56;;;;;;;0.40;0.40;;;;;18.50;95912.00;;;;4968432;28;20226;-66
2023/08/05 06:26:45;;;;;;;0.47;0.30;;;;;18.50;95908.00;;;;4968708;28;20200;-65
2023/08/05 06:29:34;;;;;;;0.53;0.27;;;;;18.40;95907.00;;;;4967781;28;20662;-66
2023/08/05 06:32:23;;;;;;;1.13;0.80;;;;;18.60;95909.00;;;;4970234;28;20231;-66
2023/08/05 06:35:12;;;;;;;0.40;0.40;;;;;18.60;95912.00;;;;4968516;28;20214;-66
2023/08/05 06:38:02;;;;;;;0.40;0.40;;;;;18.70;95915.00;;;;4968517;28;20233;-66
2023/08/05 06:40:52;;;;;;;1.73;1.03;;;;;18.70;95912.00;;;;4964141;28;20270;-67
2023/08/05 06:43:41;;;;;;;0.73;0.50;;;;;18.70;95919.00;;;;4967335;28;20227;-67
2023/08/05 06:46:30;;;;;;;0.70;0.60;;;;;18.70;95927.00;;;;4970529;28;20214;-68
2023/08/05 06:49:19;;;;;;;2.63;0.57;;;;;18.80;95929.00;;;;4969132;28;20223;-67
2023/08/05 06:52:08;;;;;;;2.83;0.60;;;;;18.80;95941.00;;;;4966142;28;20273;-67
2023/08/05 06:55:01;;;;;;;1.63;0.53;;;;;18.80;95935.00;;;;4969034;28;20208;-67
2023/08/05 06:57:50;;;;;;;0.67;0.67;;;;;18.90;95942.00;;;;4969691;28;20209;-66
2023/08/05 07:00:39;;;;;;;0.87;0.60;;;;;18.90;95944.00;;;;4969712;28;20227;-66
2023/08/05 07:03:28;;;;;;;0.93;0.50;;;;;19.00;95951.00;;;;4967710;28;20227;-66
2023/08/05 07:06:18;;;;;;;5.33;0.70;;;;;19.00;95965.00;;;;4962916;28;20218;-67
2023/08/05 07:09:07;;;;;;;0.60;0.60;;;;;19.00;95973.00;;;;4969519;28;20218;-67
2023/08/05 07:11:57;;;;;;;0.80;0.50;;;;;19.00;95967.00;;;;4968940;28;20261;-67
2023/08/05 07:14:48;;;;;;;2.03;0.80;;;;;19.10;95975.00;;;;4968234;28;20210;-67
2023/08/05 07:17:38;;;;;;;0.70;0.60;;;;;19.10;95970.00;;;;4970583;28;20210;-67
2023/08/05 07:20:27;;;;;;;1.00;0.70;;;;;19.10;95955.00;;;;4968825;28;20290;-67
2023/08/05 07:23:16;;;;;;;0.60;0.60;;;;;19.20;95958.00;;;;4965055;28;20722;-68
2023/08/05 07:26:05;;;;;;;1.70;0.80;;;;;19.20;95959.00;;;;4966512;28;20203;-67
2023/08/05 07:28:55;;;;;;;0.70;0.60;;;;;19.20;95960.00;;;;4965855;28;20207;-67
2023/08/05 07:31:45;;;;;;;0.73;0.67;;;;;19.30;95960.00;;;;4968734;28;20199;-67
2023/08/05 07:34:34;;;;;;;4.30;0.90;;;;;19.40;95960.00;;;;4966886;28;20230;-67
2023/08/05 07:37:24;;;;;;;0.70;0.60;;;;;19.30;95957.00;;;;4969154;28;20315;-66
2023/08/05 07:40:14;;;;;;;0.87;0.53;;;;;19.30;95964.00;;;;4968512;28;20679;-67
2023/08/05 07:43:05;;;;;;;1.73;0.80;;;;;19.30;95952.00;;;;4975867;28;20226;-66
2023/08/05 07:45:59;;;;;;;3.13;2.83;;;;;19.40;95955.00;;;;4982794;28;20205;-66
2023/08/05 07:48:52;;;;;;;4.00;0.90;;;;;19.20;95950.00;;;;4968276;28;20282;-66
2023/08/05 07:51:41;;;;;;;1.20;0.50;;;;;19.40;95946.00;;;;4970267;28;20215;-66
2023/08/05 07:54:30;;;;;;;0.90;0.63;;;;;19.40;95944.00;;;;4964849;28;20195;-66
2023/08/05 07:57:19;;;;;;;1.17;0.60;;;;;19.50;95947.00;;;;4967529;28;20211;-66
2023/08/05 08:00:12;;;;;;;3.37;0.83;;;;;19.40;95942.00;;;;4972464;28;20203;-66
2023/08/05 08:03:02;;;;;;;0.77;0.53;;;;;19.30;95955.00;;;;4970582;28;20235;-66
2023/08/05 08:05:51;;;;;;;0.87;0.70;;;;;19.30;95932.00;;;;4973183;28;20203;-66
2023/08/05 08:08:40;;;;;;;3.00;0.80;;;;;19.30;95936.00;;;;4969359;28;20250;-66
2023/08/05 08:11:29;;;;;;;2.23;0.80;;;;;19.30;95931.00;;;;4967650;28;20200;-66
2023/08/05 08:14:18;;;;;;;1.10;0.60;;;;;19.20;95920.00;;;;4968509;28;20207;-66
2023/08/05 08:17:08;;;;;;;1.30;0.87;;;;;19.30;95925.00;;;;4971271;28;20324;-66
2023/08/05 08:19:58;;;;;;;0.40;0.40;;;;;19.40;95922.00;;;;4968151;28;20679;-66
2023/08/05 08:22:47;;;;;;;0.77;0.60;;;;;19.30;95920.00;;;;4977271;28;20227;-66
2023/08/05 08:25:37;;;;;;;3.03;0.63;;;;;19.30;95924.00;;;;4990835;28;20213;-66
2023/08/05 08:28:26;;;;;;;0.70;0.50;;;;;19.20;95928.00;;;;4972344;28;20202;-65
2023/08/05 08:31:16;;;;;;;1.60;0.60;;;;;19.30;95923.00;;;;4962308;28;20232;-66
2023/08/05 08:34:05;;;;;;;0.40;0.30;;;;;19.30;95917.00;;;;4964306;28;20218;-66
2023/08/05 08:36:55;;;;;;;0.67;0.50;;;;;19.30;95933.00;;;;4971897;28;20670;-66
2023/08/05 08:39:44;;;;;;;1.23;0.33;;;;;19.20;95929.00;;;;4970655;28;20211;-66
2023/08/05 08:42:33;;;;;;;0.50;0.50;;;;;19.20;95936.00;;;;4978110;28;20755;-66
2023/08/05 08:45:23;;;;;;;2.57;0.80;;;;;19.20;95943.00;;;;4977408;28;20580;-66
2023/08/05 08:48:12;;;;;;;1.20;0.70;;;;;19.20;95953.00;;;;4971597;28;20211;-66
2023/08/05 08:51:03;;;;;;;2.00;0.77;;;;;19.20;95959.00;;;;4969951;28;20199;-66
2023/08/05 08:53:53;;;;;;;0.77;0.47;;;;;19.10;95962.00;;;;4977945;28;20686;-66
2023/08/05 08:56:43;;;;;;;0.40;0.40;;;;;18.90;95975.00;;;;4972289;28;20274;-65
2023/08/05 08:59:32;;;;;;;1.27;0.60;;;;;19.00;95961.00;;;;4981534;28;20726;-66
2023/08/05 09:02:24;;;;;;;0.43;0.40;;;;;18.80;95972.00;;;;4973672;28;20238;-66
2023/08/05 09:05:13;;;;;;;1.83;0.77;;;;;19.00;95965.00;;;;4973991;28;20210;-66
2023/08/05 09:08:03;;;;;;;2.10;0.93;;;;;19.10;95964.00;;;;4981367;28;20206;-66
2023/08/05 09:10:54;;;;;;;1.03;0.67;;;;;19.10;95967.00;;;;4967851;28;20756;-66
2023/08/05 09:13:43;;;;;;;1.60;0.60;;;;;19.20;95971.00;;;;4980353;28;20231;-66
2023/08/05 09:16:32;;;;;;;1.60;0.60;;;;;19.30;95963.00;;;;4971381;28;20215;-66
2023/08/05 09:19:26;;;;;;;2.67;0.50;;;;;19.30;95944.00;;;;4967873;28;20262;-66
2023/08/05 09:22:15;;;;;;;0.50;0.50;;;;;19.40;95933.00;;;;4961006;28;20246;-66
2023/08/05 09:25:04;;;;;;;0.60;0.50;;;;;19.20;95934.00;;;;4968937;28;20226;-66
2023/08/05 09:27:56;;;;;;;1.23;0.53;;;;;19.60;95925.00;;;;4973804;28;20202;-66
2023/08/05 09:30:45;;;;;;;0.43;0.40;;;;;19.80;95920.00;;;;4968690;28;20207;-66
2023/08/05 09:33:34;;;;;;;1.73;0.43;;;;;19.90;95925.00;;;;4968877;28;20292;-65
2023/08/05 09:36:24;;;;;;;0.90;0.40;;;;;20.10;95918.00;;;;4974206;28;20245;-66
2023/08/05 09:39:16;;;;;;;1.17;0.77;;;;;20.30;95925.00;;;;4967981;28;20266;-66
2023/08/05 09:42:06;;;;;;;0.67;0.40;;;;;20.40;95932.00;;;;4969212;28;20219;-66
2023/08/05 09:44:58;;;;;;;0.40;0.30;;;;;20.40;95925.00;;;;4966495;28;20585;-66
2023/08/05 09:47:49;;;;;;;0.50;0.50;;;;;20.50;95921.00;;;;4969726;28;20574;-66
2023/08/05 09:50:40;;;;;;;0.97;0.47;;;;;20.60;95928.00;;;;4979725;28;20226;-66
2023/08/05 09:53:29;;;;;;;1.23;0.50;;;;;20.60;95927.00;;;;4967334;28;20216;-65
2023/08/05 09:56:20;;;;;;;0.67;0.27;;;;;20.40;95938.00;;;;4969668;28;20675;-66
2023/08/05 09:59:12;;;;;;;0.80;0.73;;;;;20.30;95946.00;;;;4967766;28;20207;-66
2023/08/05 10:02:03;;;;;;;0.60;0.40;;;;;20.30;95961.00;;;;4969681;28;20237;-66
2023/08/05 10:04:53;;;;;;;0.40;0.40;;;;;20.20;95967.00;;;;4969711;28;20590;-66
2023/08/05 10:07:44;;;;;;;2.63;0.60;;;;;20.40;95971.00;;;;4970604;28;20211;-66
2023/08/05 10:10:34;;;;;;;1.17;0.60;;;;;20.40;95956.00;;;;4973874;28;20214;-66
2023/08/05 10:13:24;;;;;;;0.97;0.57;;;;;20.40;95945.00;;;;4967232;28;20348;-66
2023/08/05 10:16:14;;;;;;;0.50;0.50;;;;;20.30;95946.00;;;;4979504;28;20706;-66
2023/08/05 10:19:04;;;;;;;1.93;0.67;;;;;20.40;95944.00;;;;4975962;28;20223;-67
2023/08/05 10:21:53;;;;;;;1.83;0.50;;;;;20.10;95949.00;;;;4982105;28;20227;-66
2023/08/05 10:24:56;;;;;;;0.30;0.20;;;;;20.30;95950.00;;;;4971814;28;20207;-66
2023/08/05 10:27:46;;;;;;;0.73;0.50;;;;;20.30;95955.00;;;;4966837;28;20705;-66
2023/08/05 10:30:42;;;;;;;0.87;0.60;;;;;20.20;95942.00;;;;4968395;28;20242;-66
2023/08/05 10:33:31;;;;;;;3.13;0.83;;;;;20.10;95933.00;;;;4968833;28;20223;-66
2023/08/05 10:36:22;;;;;;;0.43;0.43;;;;;20.00;95927.00;;;;4970151;28;20207;-66
2023/08/05 10:39:45;;;;;;;0.60;0.50;;;;;20.30;95924.00;;;;4967689;28;20227;-66
2023/08/05 10:42:35;;;;;;;1.17;0.40;;;;;20.30;95939.00;;;;4977201;28;20317;-65
2023/08/05 10:45:25;;;;;;;0.43;0.40;;;;;20.30;95946.00;;;;4975451;28;20285;-66
2023/08/05 10:48:14;;;;;;;0.90;0.73;;;;;20.10;95960.00;;;;4963756;28;20203;-66
2023/08/05 10:51:08;;;;;;;0.30;0.30;;;;;20.20;95973.00;;;;4963786;28;20207;-65
2023/08/05 10:54:01;;;;;;;1.30;0.40;;;;;20.20;95994.00;;;;4974514;28;20613;-65
2023/08/05 10:56:50;;;;;;;8.30;1.07;;;;;20.20;95981.00;;;;4967073;28;20204;-63
2023/08/05 10:59:57;;;;;;;1.47;0.80;;;;;20.20;95971.00;;;;4967734;28;20204;-65
2023/08/05 11:02:47;;;;;;;1.30;1.20;;;;;20.00;95983.00;;;;4966226;28;20277;-65
2023/08/05 11:05:36;;;;;;;1.20;0.80;;;;;20.00;95979.00;;;;4967747;28;20223;-66
2023/08/05 11:08:26;;;;;;;0.60;0.60;;;;;20.10;95979.00;;;;4968773;28;20227;-66
2023/08/05 11:11:17;;;;;;;0.73;0.40;;;;;20.10;95980.00;;;;4969215;28;20215;-66
2023/08/05 11:14:06;;;;;;;0.40;0.40;;;;;19.80;95971.00;;;;4971800;28;20219;-66
2023/08/05 11:17:05;;;;;;;0.50;0.40;;;;;20.00;95959.00;;;;4969149;28;20199;-66
2023/08/05 11:19:55;;;;;;;0.60;0.47;;;;;20.40;95948.00;;;;4965934;28;20218;-66
2023/08/05 11:22:48;;;;;;;0.77;0.30;;;;;20.40;95952.00;;;;4972562;28;20598;-65
2023/08/05 11:25:37;;;;;;;0.50;0.40;;;;;20.20;95945.00;;;;4982178;28;20218;-65
2023/08/05 11:28:28;;;;;;;0.27;0.10;;;;;20.40;95946.00;;;;4976353;28;20211;-65
2023/08/05 11:31:24;;;;;;;1.20;0.53;;;;;20.50;95934.00;;;;4967312;28;20214;-66
2023/08/05 11:34:22;;;;;;;1.10;0.67;;;;;20.40;95929.00;;;;4972485;28;20207;-65
2023/08/05 11:37:11;;;;;;;0.93;0.70;;;;;20.50;95933.00;;;;4966550;28;20203;-65
2023/08/05 11:40:02;;;;;;;4.23;1.17;;;;;20.50;95942.00;;;;4969177;28;20231;-65
2023/08/05 11:42:53;;;;;;;2.00;0.30;;;;;20.30;95943.00;;;;4973028;28;20229;-65
2023/08/05 11:45:43;;;;;;;2.17;0.53;;;;;20.40;95950.00;;;;4977419;28;20446;-65
2023/08/05 11:48:33;;;;;;;2.47;0.70;;;;;20.50;95950.00;;;;4968789;28;20547;-65
2023/08/05 11:51:22;;;;;;;1.77;0.83;;;;;20.50;95951.00;;;;4968380;28;20216;-66
2023/08/05 11:54:11;;;;;;;11.47;3.00;;;;;20.50;95941.00;;;;4969486;28;20205;-65
2023/08/05 11:57:00;;;;;;;1.63;0.97;;;;;20.50;95933.00;;;;4967265;28;20207;-66
2023/08/05 11:59:49;;;;;;;1.70;0.93;;;;;20.50;95936.00;;;;4966468;28;20900;-65
2023/08/05 12:02:40;;;;;;;2.67;0.77;;;;;20.50;95939.00;;;;4997874;23;20746;-69
2023/08/05 12:05:29;;;;;;;0.80;0.43;;;;;20.30;95935.00;;;;5026215;28;20580;-69
2023/08/05 12:08:39;;;;;;;3.03;0.60;;;;;20.10;95943.00;;;;5026406;28;20201;-70
2023/08/05 12:11:28;;;;;;;5.33;2.03;;;;;20.20;95958.00;;;;5025191;28;20325;-68
2023/08/05 12:14:18;;;;;;;1.33;0.93;;;;;20.10;95961.00;;;;5026654;28;20221;-69
2023/08/05 12:17:07;;;;;;;1.73;0.77;;;;;20.00;95957.00;;;;5025764;28;20197;-69
2023/08/05 12:19:58;;;;;;;1.27;0.87;;;;;20.00;95961.00;;;;5023100;28;20560;-70
2023/08/05 12:22:47;;;;;;;1.70;0.60;;;;;20.10;95956.00;;;;5023962;28;20598;-70
2023/08/05 12:25:36;;;;;;;1.47;0.40;;;;;20.10;95954.00;;;;5019452;28;20201;-70
2023/08/05 12:28:25;;;;;;;1.00;0.40;;;;;20.20;95961.00;;;;5027000;28;20197;-70
2023/08/05 12:31:14;;;;;;;1.20;0.57;;;;;20.20;95952.00;;;;5026621;28;20209;-70
2023/08/05 12:34:04;;;;;;;1.33;0.77;;;;;20.30;95958.00;;;;5028293;28;21026;-69
2023/08/05 12:36:54;;;;;;;0.73;0.30;;;;;20.20;95961.00;;;;5026313;28;20209;-70
2023/08/05 12:39:43;;;;;;;0.57;0.40;;;;;20.20;95962.00;;;;5023180;28;20752;-69
2023/08/05 12:42:32;;;;;;;0.20;0.20;;;;;20.10;95965.00;;;;5026496;28;20232;-70
2023/08/05 12:45:21;;;;;;;1.00;0.40;;;;;20.10;95981.00;;;;5025660;28;20852;-69
2023/08/05 12:48:10;;;;;;;0.70;0.40;;;;;20.10;95976.00;;;;5028705;28;20207;-69
2023/08/05 12:50:59;;;;;;;1.03;0.40;;;;;20.10;95980.00;;;;5027148;28;20620;-69
2023/08/05 12:53:50;;;;;;;0.80;0.50;;;;;20.10;95992.00;;;;5025396;28;20708;-69
2023/08/05 12:56:41;;;;;;;1.87;1.77;;;;;20.10;95980.00;;;;5044849;28;20208;-70
2023/08/05 12:59:32;;;;;;;1.70;0.40;;;;;20.10;95981.00;;;;5050005;28;20301;-69
2023/08/05 13:02:23;;;;;;;0.30;0.30;;;;;20.20;95984.00;;;;5045248;28;20303;-70
2023/08/05 13:05:13;;;;;;;1.33;0.50;;;;;20.10;95986.00;;;;5045455;28;20200;-70
2023/08/05 13:08:05;;;;;;;1.27;0.43;;;;;20.10;95977.00;;;;5049361;28;20209;-69
2023/08/05 13:10:57;;;;;;;0.63;0.30;;;;;20.20;95977.00;;;;5051861;28;20518;-69
2023/08/05 13:13:46;;;;;;;0.90;0.40;;;;;20.20;95979.00;;;;5050988;28;20227;-70
2023/08/05 13:16:35;;;;;;;0.80;0.60;;;;;20.10;95980.00;;;;5043411;28;20250;-71
2023/08/05 13:19:25;;;;;;;1.00;0.50;;;;;20.20;95967.00;;;;5040109;28;20205;-70
2023/08/05 13:22:16;;;;;;;0.60;0.40;;;;;20.20;95957.00;;;;5046767;28;21469;-69
2023/08/05 13:25:05;;;;;;;0.90;0.37;;;;;20.20;95949.00;;;;5045449;28;20228;-70
2023/08/05 13:27:56;;;;;;;1.13;0.40;;;;;20.30;95946.00;;;;5043916;28;20208;-69
2023/08/05 13:30:45;;;;;;;3.93;0.90;;;;;20.40;95939.00;;;;5041826;28;20227;-70
2023/08/05 13:33:34;;;;;;;1.63;0.53;;;;;20.30;95935.00;;;;5042414;28;20232;-70
2023/08/05 13:36:24;;;;;;;0.63;0.40;;;;;20.00;95922.00;;;;5046595;28;21091;-71
2023/08/05 13:39:13;;;;;;;0.70;0.47;;;;;20.00;95916.00;;;;5041681;28;20197;-71
2023/08/05 13:42:02;;;;;;;0.60;0.40;;;;;20.30;95911.00;;;;5044417;28;20211;-70
2023/08/05 13:44:53;;;;;;;1.40;0.30;;;;;20.30;95906.00;;;;5033128;28;20229;-71
2023/08/05 13:47:42;;;;;;;0.60;0.50;;;;;20.40;95906.00;;;;5045009;28;20794;-70
2023/08/05 13:50:31;;;;;;;6.33;1.43;;;;;20.60;95895.00;;;;5047187;28;20204;-70
2023/08/05 13:53:20;;;;;;;2.43;1.40;;;;;20.60;95891.00;;;;5037895;28;20224;-71
2023/08/05 13:56:09;;;;;;;3.00;0.80;;;;;20.70;95885.00;;;;5048021;28;20205;-70
2023/08/05 13:58:58;;;;;;;2.63;0.77;;;;;20.70;95892.00;;;;5049011;28;20228;-71
2023/08/05 14:01:49;;;;;;;2.73;0.60;;;;;20.60;95903.00;;;;5046746;28;20672;-70
2023/08/05 14:04:38;;;;;;;0.77;0.67;;;;;20.60;95910.00;;;;5046520;28;20220;-71
2023/08/05 14:07:27;;;;;;;0.23;0.23;;;;;20.50;95917.00;;;;5042905;28;20216;-70
2023/08/05 14:10:16;;;;;;;1.17;0.83;;;;;20.50;95911.00;;;;5042501;28;20246;-71
2023/08/05 14:13:06;;;;;;;0.87;0.40;;;;;20.30;95911.00;;;;5048404;28;20232;-70
2023/08/05 14:15:56;;;;;;;0.30;0.20;;;;;20.10;95901.00;;;;5048092;28;20204;-70
2023/08/05 14:18:46;;;;;;;0.40;0.40;;;;;20.00;95893.00;;;;5039264;28;20217;-71
2023/08/05 14:21:35;;;;;;;0.20;0.20;;;;;20.20;95889.00;;;;5048844;28;20204;-70
2023/08/05 14:24:24;;;;;;;1.43;0.20;;;;;20.30;95888.00;;;;5046941;28;20741;-70
2023/08/05 14:27:13;;;;;;;0.30;0.30;;;;;20.20;95897.00;;;;5039737;28;20203;-70
2023/08/05 14:30:03;;;;;;;2.40;0.60;;;;;20.10;95901.00;;;;5039432;28;20200;-71
2023/08/05 14:32:58;;;;;;;9.33;0.40;;;;;20.10;95912.00;;;;5043482;28;20224;-70
2023/08/05 14:35:49;;;;;;;3.03;0.63;;;;;20.20;95915.00;;;;5046077;28;20205;-71
2023/08/05 14:38:38;;;;;;;1.47;0.70;;;;;20.20;95916.00;;;;5047845;28;20208;-70
2023/08/05 14:41:30;;;;;;;0.97;0.20;;;;;20.30;95916.00;;;;5042246;28;20953;-71
2023/08/05 14:44:19;;;;;;;0.33;0.23;;;;;20.20;95929.00;;;;5048181;28;20229;-71
2023/08/05 14:47:09;;;;;;;1.13;0.50;;;;;20.20;95926.00;;;;5044604;28;20208;-70
2023/08/05 14:49:58;;;;;;;3.83;0.30;;;;;20.10;95935.00;;;;5034279;28;20220;-70
2023/08/05 14:52:48;;;;;;;1.37;0.47;;;;;20.10;95930.00;;;;5036657;28;20229;-71
2023/08/05 14:55:37;;;;;;;0.30;0.30;;;;;20.00;95934.00;;;;5048312;28;20213;-70
2023/08/05 14:58:26;;;;;;;2.67;0.30;;;;;19.70;95928.00;;;;5042423;28;20690;-71
2023/08/05 15:01:18;;;;;;;0.20;0.17;;;;;19.70;95924.00;;;;5043102;28;20204;-70
2023/08/05 15:04:07;;;;;;;1.17;0.40;;;;;19.80;95930.00;;;;5043708;28;20255;-70
2023/08/05 15:06:56;;;;;;;1.47;0.40;;;;;19.90;95940.00;;;;5046251;28;20204;-71
2023/08/05 15:09:47;;;;;;;1.73;0.37;;;;;19.90;95942.00;;;;5045557;28;20216;-70
2023/08/05 15:12:36;;;;;;;1.60;0.50;;;;;19.90;95940.00;;;;5044190;28;20322;-70
2023/08/05 15:15:25;;;;;;;0.20;0.20;;;;;19.80;95936.00;;;;5037419;28;20215;-70
2023/08/05 15:18:14;;;;;;;0.40;0.20;;;;;19.80;95931.00;;;;5039443;28;20205;-71
2023/08/05 15:21:03;;;;;;;0.50;0.30;;;;;19.50;95927.00;;;;5046908;28;20208;-70